Blue Grass (LEX)

 

Airport Diagram
Current Weather/Forecast (MVFR Conditions)
METAR KLEX 191510Z 16005KT 7SM -RA BKN029 BKN065 OVC090 15/12 A3018 RMK AO2 RAB04 P0000 T01500122
TAF KLEX 191120Z 1912/2012 16006KT P6SM SCT030 BKN050 WS020/21037KT FM191400 19009KT P6SM VCSH SCT025 OVC040 FM191700 20010KT 5SM -SHRA SCT015 BKN025 TEMPO 1919/1923 3SM -SHRA BKN015 FM200000 20007KT P6SM VCSH SCT025 BKN040

Airport Information

All Charts
General
Chart Name View
AIRPORT DIAGRAM
AIRPORT DIAGRAM
TAKEOFF MINIMUMS
ALTERNATE MINIMUMS
TAKEOFF MINIMUMS
ALTERNATE MINIMUMS
HOT SPOT
HOT SPOT

Arrivals
Chart Name Download
CLEGG FIVE
CLEGG FIVE

Approaches
Chart Name Download
ILS OR LOC RWY 04
ILS OR LOC RWY 22
RNAV (GPS) RWY 04
RNAV (GPS) RWY 09
RNAV (GPS) RWY 22
RNAV (GPS) RWY 27
VOR-A
ILS OR LOC RWY 04
ILS OR LOC RWY 22
RNAV (GPS) RWY 04
RNAV (GPS) RWY 09
RNAV (GPS) RWY 22
RNAV (GPS) RWY 27
VOR-A


Airport Statistics
Departures Arrivals Local
All Collected Stats since June 2016: 317 287 7
2020 Stats: 123 131 2
October Stats: 4 8 0

Inbound Traffic (Arrivals) - 0

No inbound traffic.


Outbound Traffic (Departures) - 0

No outbound traffic.


Local Traffic (Pattern) - 0

No local traffic.